Adamsville, Pennsylvania
Current Conditions -  °F | °C
As of 2:53 PM on Thursday 18 Dec 2014 (Local Time) from KGKJ Reporting Station
Haze Haze  
Wind Chill: 19°   Ceiling: 1100
Heat Index: 28°   Visibility: 4mi
Dew Point: 24°   Wind: 9mph
Humidity: 85%   Direction: 250°WSW
Pressure: 30.09"   Gusts: NA
Location:  41.51°N, 80.37°W
Report Text: KGKJ 181953Z AUTO 25008KT 4SM BR BKN011 OVC017 M02/M04 A3009 RMK AO2 SNB11E12B14E30 SLP206 P0000 T10221044 TSNO
Loading
Personal Weather Stations






























Interactive Weather Map New forecast layout! Learn more

10-Day Weather Forecast

Advertisements
Track Severe Weather on mobile